Columbus, Georgia
Current Conditions -  °F | °C
As of 5:51 AM on Sunday 21 Dec 2014 (Local Time) from KCSG Reporting Station
Overcast Overcast  
Wind Chill: 10°   Ceiling: 600
Heat Index: 10°   Visibility: 7mi
Dew Point:   Wind: 5mph
Humidity: 93%   Direction: 70°ENE
Pressure: 30.16"   Gusts: NA
Location:  32.51°N, 84.93°W
Report Text: KCSG 211051Z AUTO 07004KT 7SM OVC006 10/09 A3016 RMK AO2 SLP211 T01000089
Loading
Personal Weather Stations






























Interactive Weather Map New forecast layout! Learn more

10-Day Weather Forecast

Advertisements
Track Severe Weather on mobile